sensor_id;sensor_type;location;lat;lon;timestamp;P1;durP1;ratioP1;P2;durP2;ratioP2
55603;SDS011;41468;48.838;9.330;2024-01-07T00:01:41;18.93;;;12.80;;
55603;SDS011;41468;48.838;9.330;2024-01-07T00:04:12;14.50;;;12.13;;
55603;SDS011;41468;48.838;9.330;2024-01-07T00:06:42;16.57;;;12.20;;
55603;SDS011;41468;48.838;9.330;2024-01-07T00:09:10;17.97;;;12.23;;
55603;SDS011;41468;48.838;9.330;2024-01-07T00:11:38;16.67;;;12.20;;
55603;SDS011;41468;48.838;9.330;2024-01-07T00:14:05;19.67;;;12.90;;
55603;SDS011;41468;48.838;9.330;2024-01-07T00:16:32;18.27;;;12.93;;
55603;SDS011;41468;48.838;9.330;2024-01-07T00:18:59;17.00;;;12.40;;
55603;SDS011;41468;48.838;9.330;2024-01-07T00:21:26;16.80;;;12.77;;
55603;SDS011;41468;48.838;9.330;2024-01-07T00:23:53;17.00;;;12.67;;
55603;SDS011;41468;48.838;9.330;2024-01-07T00:26:19;17.03;;;12.10;;
55603;SDS011;41468;48.838;9.330;2024-01-07T00:28:46;16.07;;;11.90;;
55603;SDS011;41468;48.838;9.330;2024-01-07T00:31:13;17.63;;;12.87;;
55603;SDS011;41468;48.838;9.330;2024-01-07T00:33:40;17.87;;;12.63;;
55603;SDS011;41468;48.838;9.330;2024-01-07T00:36:07;16.13;;;12.33;;
55603;SDS011;41468;48.838;9.330;2024-01-07T00:38:34;16.27;;;12.50;;
55603;SDS011;41468;48.838;9.330;2024-01-07T00:41:01;16.10;;;11.93;;
55603;SDS011;41468;48.838;9.330;2024-01-07T00:43:28;18.13;;;12.73;;
55603;SDS011;41468;48.838;9.330;2024-01-07T00:45:55;16.93;;;12.60;;
55603;SDS011;41468;48.838;9.330;2024-01-07T00:48:21;18.87;;;11.93;;
55603;SDS011;41468;48.838;9.330;2024-01-07T00:50:48;16.67;;;12.47;;
55603;SDS011;41468;48.838;9.330;2024-01-07T00:53:15;16.23;;;12.23;;
55603;SDS011;41468;48.838;9.330;2024-01-07T00:55:42;16.80;;;12.23;;
55603;SDS011;41468;48.838;9.330;2024-01-07T00:58:08;17.37;;;12.40;;
55603;SDS011;41468;48.838;9.330;2024-01-07T01:00:38;19.83;;;12.57;;
55603;SDS011;41468;48.838;9.330;2024-01-07T01:03:05;15.60;;;11.57;;
55603;SDS011;41468;48.838;9.330;2024-01-07T01:05:32;17.20;;;11.93;;
55603;SDS011;41468;48.838;9.330;2024-01-07T01:07:58;16.73;;;12.70;;
55603;SDS011;41468;48.838;9.330;2024-01-07T01:10:25;21.67;;;13.47;;
55603;SDS011;41468;48.838;9.330;2024-01-07T01:12:52;17.90;;;13.17;;
55603;SDS011;41468;48.838;9.330;2024-01-07T01:15:20;23.37;;;13.37;;
55603;SDS011;41468;48.838;9.330;2024-01-07T01:17:47;23.37;;;13.80;;
55603;SDS011;41468;48.838;9.330;2024-01-07T01:20:14;17.10;;;12.73;;
55603;SDS011;41468;48.838;9.330;2024-01-07T01:22:41;18.73;;;12.80;;
55603;SDS011;41468;48.838;9.330;2024-01-07T01:25:07;17.73;;;13.33;;
55603;SDS011;41468;48.838;9.330;2024-01-07T01:27:34;19.77;;;12.93;;
55603;SDS011;41468;48.838;9.330;2024-01-07T01:30:01;17.97;;;13.03;;
55603;SDS011;41468;48.838;9.330;2024-01-07T01:32:28;21.00;;;12.83;;
55603;SDS011;41468;48.838;9.330;2024-01-07T01:34:55;21.03;;;12.67;;
55603;SDS011;41468;48.838;9.330;2024-01-07T01:37:21;22.70;;;13.20;;
55603;SDS011;41468;48.838;9.330;2024-01-07T01:39:48;19.63;;;12.97;;
55603;SDS011;41468;48.838;9.330;2024-01-07T01:42:15;19.07;;;12.23;;
55603;SDS011;41468;48.838;9.330;2024-01-07T01:44:42;18.90;;;12.13;;
55603;SDS011;41468;48.838;9.330;2024-01-07T01:47:09;17.50;;;13.57;;
55603;SDS011;41468;48.838;9.330;2024-01-07T01:49:36;18.50;;;13.10;;
55603;SDS011;41468;48.838;9.330;2024-01-07T01:52:04;16.93;;;11.70;;
55603;SDS011;41468;48.838;9.330;2024-01-07T01:54:32;20.33;;;12.60;;
55603;SDS011;41468;48.838;9.330;2024-01-07T01:56:59;17.73;;;12.93;;
55603;SDS011;41468;48.838;9.330;2024-01-07T01:59:26;16.90;;;12.57;;
55603;SDS011;41468;48.838;9.330;2024-01-07T02:01:55;23.17;;;12.57;;
55603;SDS011;41468;48.838;9.330;2024-01-07T02:04:22;18.27;;;12.17;;
55603;SDS011;41468;48.838;9.330;2024-01-07T02:06:49;16.53;;;12.00;;
55603;SDS011;41468;48.838;9.330;2024-01-07T02:09:16;18.37;;;12.20;;
55603;SDS011;41468;48.838;9.330;2024-01-07T02:11:42;18.30;;;12.20;;
55603;SDS011;41468;48.838;9.330;2024-01-07T02:14:09;15.17;;;11.47;;
55603;SDS011;41468;48.838;9.330;2024-01-07T02:16:36;14.80;;;11.53;;
55603;SDS011;41468;48.838;9.330;2024-01-07T02:19:02;16.43;;;12.30;;
55603;SDS011;41468;48.838;9.330;2024-01-07T02:21:29;16.50;;;12.03;;
55603;SDS011;41468;48.838;9.330;2024-01-07T02:23:56;17.40;;;11.97;;
55603;SDS011;41468;48.838;9.330;2024-01-07T02:26:23;14.83;;;11.47;;
55603;SDS011;41468;48.838;9.330;2024-01-07T02:28:50;16.20;;;11.77;;
55603;SDS011;41468;48.838;9.330;2024-01-07T02:31:17;13.93;;;11.30;;
55603;SDS011;41468;48.838;9.330;2024-01-07T02:33:49;16.60;;;11.57;;
55603;SDS011;41468;48.838;9.330;2024-01-07T02:36:16;15.83;;;12.27;;
55603;SDS011;41468;48.838;9.330;2024-01-07T02:38:43;19.40;;;12.00;;
55603;SDS011;41468;48.838;9.330;2024-01-07T02:41:09;16.57;;;11.67;;
55603;SDS011;41468;48.838;9.330;2024-01-07T02:43:36;16.60;;;12.03;;
55603;SDS011;41468;48.838;9.330;2024-01-07T02:46:03;14.93;;;11.10;;
55603;SDS011;41468;48.838;9.330;2024-01-07T02:48:30;14.50;;;11.17;;
55603;SDS011;41468;48.838;9.330;2024-01-07T02:50:57;16.40;;;11.70;;
55603;SDS011;41468;48.838;9.330;2024-01-07T02:53:23;17.57;;;11.33;;
55603;SDS011;41468;48.838;9.330;2024-01-07T02:55:50;16.03;;;10.87;;
55603;SDS011;41468;48.838;9.330;2024-01-07T02:58:17;14.07;;;11.43;;
55603;SDS011;41468;48.838;9.330;2024-01-07T03:00:43;13.23;;;10.17;;
55603;SDS011;41468;48.838;9.330;2024-01-07T03:03:10;16.50;;;11.13;;
55603;SDS011;41468;48.838;9.330;2024-01-07T03:05:37;14.67;;;10.60;;
55603;SDS011;41468;48.838;9.330;2024-01-07T03:08:04;14.23;;;11.03;;
55603;SDS011;41468;48.838;9.330;2024-01-07T03:10:31;13.87;;;10.53;;
55603;SDS011;41468;48.838;9.330;2024-01-07T03:12:58;14.50;;;9.97;;
55603;SDS011;41468;48.838;9.330;2024-01-07T03:15:24;16.40;;;10.20;;
55603;SDS011;41468;48.838;9.330;2024-01-07T03:17:51;13.60;;;10.37;;
55603;SDS011;41468;48.838;9.330;2024-01-07T03:20:18;14.40;;;10.30;;
55603;SDS011;41468;48.838;9.330;2024-01-07T03:22:45;15.43;;;9.97;;
55603;SDS011;41468;48.838;9.330;2024-01-07T03:25:11;12.13;;;8.93;;
55603;SDS011;41468;48.838;9.330;2024-01-07T03:27:38;10.47;;;8.93;;
55603;SDS011;41468;48.838;9.330;2024-01-07T03:30:05;10.67;;;8.80;;
55603;SDS011;41468;48.838;9.330;2024-01-07T03:32:33;11.80;;;9.00;;
55603;SDS011;41468;48.838;9.330;2024-01-07T03:34:59;12.33;;;8.20;;
55603;SDS011;41468;48.838;9.330;2024-01-07T03:37:26;12.53;;;8.53;;
55603;SDS011;41468;48.838;9.330;2024-01-07T03:39:53;11.93;;;8.97;;
55603;SDS011;41468;48.838;9.330;2024-01-07T03:42:20;10.80;;;8.37;;
55603;SDS011;41468;48.838;9.330;2024-01-07T03:44:47;10.53;;;8.37;;
55603;SDS011;41468;48.838;9.330;2024-01-07T03:47:14;12.00;;;8.40;;
55603;SDS011;41468;48.838;9.330;2024-01-07T03:49:40;9.73;;;7.83;;
55603;SDS011;41468;48.838;9.330;2024-01-07T03:52:07;10.87;;;8.27;;
55603;SDS011;41468;48.838;9.330;2024-01-07T03:54:34;11.03;;;8.40;;
55603;SDS011;41468;48.838;9.330;2024-01-07T03:57:01;8.87;;;7.63;;
55603;SDS011;41468;48.838;9.330;2024-01-07T03:59:28;9.83;;;7.40;;
55603;SDS011;41468;48.838;9.330;2024-01-07T04:01:55;8.83;;;7.60;;
55603;SDS011;41468;48.838;9.330;2024-01-07T04:04:27;7.93;;;7.13;;
55603;SDS011;41468;48.838;9.330;2024-01-07T04:06:54;7.90;;;6.70;;
55603;SDS011;41468;48.838;9.330;2024-01-07T04:09:20;9.13;;;7.50;;
55603;SDS011;41468;48.838;9.330;2024-01-07T04:11:47;8.93;;;7.67;;
55603;SDS011;41468;48.838;9.330;2024-01-07T04:14:14;8.30;;;6.87;;
55603;SDS011;41468;48.838;9.330;2024-01-07T04:16:41;8.80;;;6.70;;
55603;SDS011;41468;48.838;9.330;2024-01-07T04:19:08;7.53;;;6.37;;
55603;SDS011;41468;48.838;9.330;2024-01-07T04:21:35;8.50;;;6.57;;
55603;SDS011;41468;48.838;9.330;2024-01-07T04:24:02;7.87;;;7.03;;
55603;SDS011;41468;48.838;9.330;2024-01-07T04:26:29;8.30;;;6.43;;
55603;SDS011;41468;48.838;9.330;2024-01-07T04:28:56;8.07;;;6.73;;
55603;SDS011;41468;48.838;9.330;2024-01-07T04:31:22;8.43;;;6.33;;
55603;SDS011;41468;48.838;9.330;2024-01-07T04:33:49;6.90;;;6.20;;
55603;SDS011;41468;48.838;9.330;2024-01-07T04:36:16;7.93;;;7.10;;
55603;SDS011;41468;48.838;9.330;2024-01-07T04:38:43;6.77;;;6.07;;
55603;SDS011;41468;48.838;9.330;2024-01-07T04:41:10;7.27;;;6.57;;
55603;SDS011;41468;48.838;9.330;2024-01-07T04:43:37;7.57;;;6.73;;
55603;SDS011;41468;48.838;9.330;2024-01-07T04:46:04;8.27;;;6.20;;
55603;SDS011;41468;48.838;9.330;2024-01-07T04:48:31;10.33;;;6.30;;
55603;SDS011;41468;48.838;9.330;2024-01-07T04:50:58;7.50;;;6.40;;
55603;SDS011;41468;48.838;9.330;2024-01-07T04:53:29;8.10;;;6.20;;
55603;SDS011;41468;48.838;9.330;2024-01-07T04:55:56;8.10;;;6.10;;
55603;SDS011;41468;48.838;9.330;2024-01-07T04:58:22;6.20;;;5.47;;
55603;SDS011;41468;48.838;9.330;2024-01-07T05:00:49;7.57;;;6.10;;
55603;SDS011;41468;48.838;9.330;2024-01-07T05:03:16;6.77;;;6.17;;
55603;SDS011;41468;48.838;9.330;2024-01-07T05:05:43;7.33;;;6.30;;
55603;SDS011;41468;48.838;9.330;2024-01-07T05:08:10;7.00;;;6.30;;
55603;SDS011;41468;48.838;9.330;2024-01-07T05:10:36;8.67;;;6.90;;
55603;SDS011;41468;48.838;9.330;2024-01-07T05:13:03;9.13;;;6.43;;
55603;SDS011;41468;48.838;9.330;2024-01-07T05:15:32;10.70;;;7.10;;
55603;SDS011;41468;48.838;9.330;2024-01-07T05:18:00;9.47;;;6.27;;
55603;SDS011;41468;48.838;9.330;2024-01-07T05:20:27;9.37;;;6.87;;
55603;SDS011;41468;48.838;9.330;2024-01-07T05:22:54;7.83;;;6.33;;
55603;SDS011;41468;48.838;9.330;2024-01-07T05:25:20;8.20;;;6.90;;
55603;SDS011;41468;48.838;9.330;2024-01-07T05:27:48;8.20;;;6.83;;
55603;SDS011;41468;48.838;9.330;2024-01-07T05:30:25;8.37;;;7.17;;
55603;SDS011;41468;48.838;9.330;2024-01-07T05:32:52;8.63;;;7.33;;
55603;SDS011;41468;48.838;9.330;2024-01-07T05:35:19;8.37;;;7.17;;
55603;SDS011;41468;48.838;9.330;2024-01-07T05:37:46;12.50;;;7.70;;
55603;SDS011;41468;48.838;9.330;2024-01-07T05:40:13;9.70;;;8.00;;
55603;SDS011;41468;48.838;9.330;2024-01-07T05:42:40;10.90;;;8.63;;
55603;SDS011;41468;48.838;9.330;2024-01-07T05:45:07;14.63;;;8.37;;
55603;SDS011;41468;48.838;9.330;2024-01-07T05:47:34;9.73;;;7.90;;
55603;SDS011;41468;48.838;9.330;2024-01-07T05:50:01;10.23;;;7.97;;
55603;SDS011;41468;48.838;9.330;2024-01-07T05:52:28;9.20;;;7.97;;
55603;SDS011;41468;48.838;9.330;2024-01-07T05:54:55;10.00;;;8.27;;
55603;SDS011;41468;48.838;9.330;2024-01-07T05:57:22;11.80;;;8.47;;
55603;SDS011;41468;48.838;9.330;2024-01-07T05:59:48;13.63;;;8.33;;
55603;SDS011;41468;48.838;9.330;2024-01-07T06:02:20;9.67;;;7.53;;
55603;SDS011;41468;48.838;9.330;2024-01-07T06:04:49;11.67;;;7.23;;
55603;SDS011;41468;48.838;9.330;2024-01-07T06:07:16;8.93;;;7.13;;
55603;SDS011;41468;48.838;9.330;2024-01-07T06:09:43;8.70;;;7.00;;
55603;SDS011;41468;48.838;9.330;2024-01-07T06:12:10;7.43;;;6.03;;
55603;SDS011;41468;48.838;9.330;2024-01-07T06:14:36;8.30;;;6.17;;
55603;SDS011;41468;48.838;9.330;2024-01-07T06:17:08;9.90;;;6.73;;
55603;SDS011;41468;48.838;9.330;2024-01-07T06:19:34;8.17;;;6.70;;
55603;SDS011;41468;48.838;9.330;2024-01-07T06:22:01;8.40;;;6.33;;
55603;SDS011;41468;48.838;9.330;2024-01-07T06:24:28;7.50;;;6.57;;
55603;SDS011;41468;48.838;9.330;2024-01-07T06:26:55;9.23;;;6.33;;
55603;SDS011;41468;48.838;9.330;2024-01-07T06:29:22;8.73;;;6.10;;
55603;SDS011;41468;48.838;9.330;2024-01-07T06:31:48;7.87;;;5.93;;
55603;SDS011;41468;48.838;9.330;2024-01-07T06:34:15;8.33;;;6.53;;
55603;SDS011;41468;48.838;9.330;2024-01-07T06:36:43;10.70;;;6.87;;
55603;SDS011;41468;48.838;9.330;2024-01-07T06:39:10;7.60;;;6.80;;
55603;SDS011;41468;48.838;9.330;2024-01-07T06:41:37;9.17;;;7.00;;
55603;SDS011;41468;48.838;9.330;2024-01-07T06:44:04;8.20;;;6.30;;
55603;SDS011;41468;48.838;9.330;2024-01-07T06:46:31;7.63;;;6.83;;
55603;SDS011;41468;48.838;9.330;2024-01-07T06:48:57;7.03;;;6.33;;
55603;SDS011;41468;48.838;9.330;2024-01-07T06:51:25;9.20;;;7.17;;
55603;SDS011;41468;48.838;9.330;2024-01-07T06:53:52;8.80;;;6.97;;
55603;SDS011;41468;48.838;9.330;2024-01-07T06:56:19;7.97;;;7.07;;
55603;SDS011;41468;48.838;9.330;2024-01-07T06:58:45;8.20;;;7.00;;
55603;SDS011;41468;48.838;9.330;2024-01-07T07:01:12;9.23;;;7.43;;
55603;SDS011;41468;48.838;9.330;2024-01-07T07:03:44;7.47;;;6.77;;
55603;SDS011;41468;48.838;9.330;2024-01-07T07:06:11;9.17;;;7.40;;
55603;SDS011;41468;48.838;9.330;2024-01-07T07:08:39;7.63;;;6.77;;
55603;SDS011;41468;48.838;9.330;2024-01-07T07:11:05;7.70;;;6.80;;
55603;SDS011;41468;48.838;9.330;2024-01-07T07:13:32;8.20;;;6.57;;
55603;SDS011;41468;48.838;9.330;2024-01-07T07:15:59;8.03;;;6.43;;
55603;SDS011;41468;48.838;9.330;2024-01-07T07:18:26;7.77;;;6.80;;
55603;SDS011;41468;48.838;9.330;2024-01-07T07:20:53;7.20;;;6.50;;
55603;SDS011;41468;48.838;9.330;2024-01-07T07:23:20;7.40;;;6.70;;
55603;SDS011;41468;48.838;9.330;2024-01-07T07:25:46;8.77;;;6.80;;
55603;SDS011;41468;48.838;9.330;2024-01-07T07:28:13;7.50;;;6.50;;
55603;SDS011;41468;48.838;9.330;2024-01-07T07:30:40;9.87;;;7.30;;
55603;SDS011;41468;48.838;9.330;2024-01-07T07:33:07;12.67;;;7.17;;
55603;SDS011;41468;48.838;9.330;2024-01-07T07:35:34;8.67;;;6.60;;
55603;SDS011;41468;48.838;9.330;2024-01-07T07:38:01;8.30;;;6.57;;
55603;SDS011;41468;48.838;9.330;2024-01-07T07:40:27;7.80;;;6.53;;
55603;SDS011;41468;48.838;9.330;2024-01-07T07:42:54;7.90;;;6.70;;
55603;SDS011;41468;48.838;9.330;2024-01-07T07:45:21;10.20;;;6.50;;
55603;SDS011;41468;48.838;9.330;2024-01-07T07:47:48;8.83;;;6.17;;
55603;SDS011;41468;48.838;9.330;2024-01-07T07:50:15;6.60;;;5.73;;
55603;SDS011;41468;48.838;9.330;2024-01-07T07:52:42;7.37;;;6.37;;
55603;SDS011;41468;48.838;9.330;2024-01-07T07:55:11;8.40;;;6.30;;
55603;SDS011;41468;48.838;9.330;2024-01-07T07:57:38;6.70;;;5.90;;
55603;SDS011;41468;48.838;9.330;2024-01-07T08:00:06;7.90;;;6.27;;
55603;SDS011;41468;48.838;9.330;2024-01-07T08:02:33;6.50;;;5.80;;
55603;SDS011;41468;48.838;9.330;2024-01-07T08:05:00;9.30;;;6.33;;
55603;SDS011;41468;48.838;9.330;2024-01-07T08:07:27;6.93;;;5.73;;
55603;SDS011;41468;48.838;9.330;2024-01-07T08:09:54;8.17;;;6.07;;
55603;SDS011;41468;48.838;9.330;2024-01-07T08:12:23;7.13;;;4.97;;
55603;SDS011;41468;48.838;9.330;2024-01-07T08:14:50;5.93;;;5.03;;
55603;SDS011;41468;48.838;9.330;2024-01-07T08:17:22;5.67;;;5.00;;
55603;SDS011;41468;48.838;9.330;2024-01-07T08:19:50;5.67;;;5.07;;
55603;SDS011;41468;48.838;9.330;2024-01-07T08:22:17;6.80;;;4.57;;
55603;SDS011;41468;48.838;9.330;2024-01-07T08:24:44;5.67;;;4.20;;
55603;SDS011;41468;48.838;9.330;2024-01-07T08:27:10;4.53;;;4.10;;
55603;SDS011;41468;48.838;9.330;2024-01-07T08:29:37;4.57;;;4.17;;
55603;SDS011;41468;48.838;9.330;2024-01-07T08:32:04;5.23;;;4.60;;
55603;SDS011;41468;48.838;9.330;2024-01-07T08:34:31;5.03;;;4.37;;
55603;SDS011;41468;48.838;9.330;2024-01-07T08:36:58;5.80;;;4.37;;
55603;SDS011;41468;48.838;9.330;2024-01-07T08:39:31;6.47;;;4.73;;
55603;SDS011;41468;48.838;9.330;2024-01-07T08:41:58;6.30;;;4.70;;
55603;SDS011;41468;48.838;9.330;2024-01-07T08:44:25;6.03;;;4.50;;
55603;SDS011;41468;48.838;9.330;2024-01-07T08:46:52;6.20;;;5.10;;
55603;SDS011;41468;48.838;9.330;2024-01-07T08:49:19;6.20;;;5.33;;
55603;SDS011;41468;48.838;9.330;2024-01-07T08:51:46;6.30;;;5.20;;
55603;SDS011;41468;48.838;9.330;2024-01-07T08:54:12;6.57;;;4.90;;
55603;SDS011;41468;48.838;9.330;2024-01-07T08:56:39;11.30;;;9.80;;
55603;SDS011;41468;48.838;9.330;2024-01-07T08:59:06;8.87;;;5.80;;
55603;SDS011;41468;48.838;9.330;2024-01-07T09:01:33;7.03;;;5.03;;
55603;SDS011;41468;48.838;9.330;2024-01-07T09:03:59;6.97;;;5.40;;
55603;SDS011;41468;48.838;9.330;2024-01-07T09:06:29;8.13;;;5.50;;
55603;SDS011;41468;48.838;9.330;2024-01-07T09:08:56;6.40;;;5.20;;
55603;SDS011;41468;48.838;9.330;2024-01-07T09:11:23;6.43;;;5.13;;
55603;SDS011;41468;48.838;9.330;2024-01-07T09:13:50;6.03;;;4.80;;
55603;SDS011;41468;48.838;9.330;2024-01-07T09:16:17;5.57;;;4.53;;
55603;SDS011;41468;48.838;9.330;2024-01-07T09:18:44;5.43;;;4.30;;
55603;SDS011;41468;48.838;9.330;2024-01-07T09:21:11;5.03;;;4.50;;
55603;SDS011;41468;48.838;9.330;2024-01-07T09:23:38;5.43;;;4.67;;
55603;SDS011;41468;48.838;9.330;2024-01-07T09:26:05;5.17;;;4.43;;
55603;SDS011;41468;48.838;9.330;2024-01-07T09:28:32;5.60;;;4.67;;
55603;SDS011;41468;48.838;9.330;2024-01-07T09:30:59;4.57;;;4.00;;
55603;SDS011;41468;48.838;9.330;2024-01-07T09:33:26;6.33;;;4.60;;
55603;SDS011;41468;48.838;9.330;2024-01-07T09:35:53;4.47;;;3.70;;
55603;SDS011;41468;48.838;9.330;2024-01-07T09:38:35;4.20;;;3.83;;
55603;SDS011;41468;48.838;9.330;2024-01-07T09:41:02;3.90;;;3.57;;
55603;SDS011;41468;48.838;9.330;2024-01-07T09:43:29;3.97;;;3.60;;
55603;SDS011;41468;48.838;9.330;2024-01-07T09:46:01;4.23;;;3.40;;
55603;SDS011;41468;48.838;9.330;2024-01-07T09:48:29;5.63;;;3.63;;
55603;SDS011;41468;48.838;9.330;2024-01-07T09:50:56;3.50;;;3.20;;
55603;SDS011;41468;48.838;9.330;2024-01-07T09:53:25;3.60;;;3.30;;
55603;SDS011;41468;48.838;9.330;2024-01-07T09:56:01;4.53;;;3.20;;
55603;SDS011;41468;48.838;9.330;2024-01-07T09:58:38;4.17;;;3.77;;
55603;SDS011;41468;48.838;9.330;2024-01-07T10:01:05;3.57;;;3.13;;
55603;SDS011;41468;48.838;9.330;2024-01-07T10:03:33;3.80;;;3.37;;
55603;SDS011;41468;48.838;9.330;2024-01-07T10:06:00;10.97;;;9.83;;
55603;SDS011;41468;48.838;9.330;2024-01-07T10:08:38;5.20;;;4.70;;
55603;SDS011;41468;48.838;9.330;2024-01-07T10:11:05;4.30;;;3.90;;
55603;SDS011;41468;48.838;9.330;2024-01-07T10:13:36;13.10;;;11.23;;
55603;SDS011;41468;48.838;9.330;2024-01-07T10:16:03;3.80;;;3.40;;
55603;SDS011;41468;48.838;9.330;2024-01-07T10:18:30;4.83;;;3.80;;
55603;SDS011;41468;48.838;9.330;2024-01-07T10:21:05;4.77;;;4.00;;
55603;SDS011;41468;48.838;9.330;2024-01-07T10:23:32;4.23;;;3.73;;
55603;SDS011;41468;48.838;9.330;2024-01-07T10:25:59;5.93;;;4.40;;
55603;SDS011;41468;48.838;9.330;2024-01-07T10:28:40;5.40;;;4.37;;
55603;SDS011;41468;48.838;9.330;2024-01-07T10:31:07;4.17;;;3.77;;
55603;SDS011;41468;48.838;9.330;2024-01-07T10:33:34;4.73;;;4.20;;
55603;SDS011;41468;48.838;9.330;2024-01-07T10:36:02;4.70;;;4.20;;
55603;SDS011;41468;48.838;9.330;2024-01-07T10:38:32;4.60;;;4.20;;
55603;SDS011;41468;48.838;9.330;2024-01-07T10:41:02;4.97;;;4.30;;
55603;SDS011;41468;48.838;9.330;2024-01-07T10:43:31;6.53;;;5.00;;
55603;SDS011;41468;48.838;9.330;2024-01-07T10:46:02;4.97;;;4.50;;
55603;SDS011;41468;48.838;9.330;2024-01-07T10:48:31;5.57;;;4.37;;
55603;SDS011;41468;48.838;9.330;2024-01-07T10:51:01;6.00;;;4.63;;
55603;SDS011;41468;48.838;9.330;2024-01-07T10:53:33;5.63;;;4.40;;
55603;SDS011;41468;48.838;9.330;2024-01-07T10:56:03;5.57;;;4.50;;
55603;SDS011;41468;48.838;9.330;2024-01-07T10:58:35;4.77;;;4.27;;
55603;SDS011;41468;48.838;9.330;2024-01-07T11:01:03;5.23;;;4.27;;
55603;SDS011;41468;48.838;9.330;2024-01-07T11:09:26;4.47;;;3.90;;
55603;SDS011;41468;48.838;9.330;2024-01-07T11:12:20;4.03;;;3.57;;
55603;SDS011;41468;48.838;9.330;2024-01-07T11:14:47;3.90;;;3.60;;
55603;SDS011;41468;48.838;9.330;2024-01-07T11:17:53;4.40;;;4.00;;
55603;SDS011;41468;48.838;9.330;2024-01-07T11:20:16;4.43;;;4.03;;
55603;SDS011;41468;48.838;9.330;2024-01-07T11:22:46;4.73;;;4.10;;
55603;SDS011;41468;48.838;9.330;2024-01-07T11:25:27;4.80;;;4.13;;
55603;SDS011;41468;48.838;9.330;2024-01-07T11:28:00;4.40;;;4.00;;
55603;SDS011;41468;48.838;9.330;2024-01-07T11:30:28;3.80;;;3.47;;
55603;SDS011;41468;48.838;9.330;2024-01-07T11:32:56;4.53;;;4.10;;
55603;SDS011;41468;48.838;9.330;2024-01-07T11:38:29;4.90;;;4.37;;
55603;SDS011;41468;48.838;9.330;2024-01-07T11:40:56;4.07;;;3.67;;
55603;SDS011;41468;48.838;9.330;2024-01-07T11:43:24;5.17;;;3.97;;
55603;SDS011;41468;48.838;9.330;2024-01-07T11:45:51;5.40;;;4.67;;
55603;SDS011;41468;48.838;9.330;2024-01-07T11:48:18;4.93;;;4.43;;
55603;SDS011;41468;48.838;9.330;2024-01-07T11:50:46;4.47;;;4.07;;
55603;SDS011;41468;48.838;9.330;2024-01-07T11:53:15;6.67;;;4.40;;
55603;SDS011;41468;48.838;9.330;2024-01-07T11:55:42;6.67;;;4.40;;
55603;SDS011;41468;48.838;9.330;2024-01-07T11:58:17;4.27;;;3.87;;
55603;SDS011;41468;48.838;9.330;2024-01-07T12:00:43;4.37;;;3.97;;
55603;SDS011;41468;48.838;9.330;2024-01-07T12:03:10;5.07;;;4.40;;
55603;SDS011;41468;48.838;9.330;2024-01-07T12:05:38;5.77;;;4.40;;
55603;SDS011;41468;48.838;9.330;2024-01-07T12:08:09;4.70;;;4.30;;
55603;SDS011;41468;48.838;9.330;2024-01-07T12:10:37;5.17;;;4.67;;
55603;SDS011;41468;48.838;9.330;2024-01-07T12:13:03;5.43;;;4.73;;
55603;SDS011;41468;48.838;9.330;2024-01-07T12:15:35;5.57;;;5.00;;
55603;SDS011;41468;48.838;9.330;2024-01-07T12:18:04;6.13;;;4.80;;
55603;SDS011;41468;48.838;9.330;2024-01-07T12:20:31;6.73;;;4.50;;
55603;SDS011;41468;48.838;9.330;2024-01-07T12:23:04;5.20;;;4.57;;
55603;SDS011;41468;48.838;9.330;2024-01-07T12:25:32;5.63;;;4.73;;
55603;SDS011;41468;48.838;9.330;2024-01-07T12:27:59;6.23;;;5.17;;
55603;SDS011;41468;48.838;9.330;2024-01-07T12:30:26;8.10;;;6.70;;
55603;SDS011;41468;48.838;9.330;2024-01-07T12:32:54;6.67;;;5.37;;
55603;SDS011;41468;48.838;9.330;2024-01-07T12:35:21;5.63;;;4.73;;
55603;SDS011;41468;48.838;9.330;2024-01-07T12:37:52;6.13;;;4.93;;
55603;SDS011;41468;48.838;9.330;2024-01-07T12:40:18;5.80;;;5.10;;
55603;SDS011;41468;48.838;9.330;2024-01-07T12:42:46;5.33;;;4.53;;
55603;SDS011;41468;48.838;9.330;2024-01-07T12:45:14;5.57;;;5.00;;
55603;SDS011;41468;48.838;9.330;2024-01-07T12:47:42;5.80;;;5.20;;
55603;SDS011;41468;48.838;9.330;2024-01-07T12:50:09;6.27;;;5.33;;
55603;SDS011;41468;48.838;9.330;2024-01-07T12:52:39;6.43;;;5.20;;
55603;SDS011;41468;48.838;9.330;2024-01-07T12:55:07;7.17;;;5.63;;
55603;SDS011;41468;48.838;9.330;2024-01-07T12:57:34;5.90;;;5.10;;
55603;SDS011;41468;48.838;9.330;2024-01-07T13:00:03;6.40;;;5.50;;
55603;SDS011;41468;48.838;9.330;2024-01-07T13:02:33;6.33;;;5.30;;
55603;SDS011;41468;48.838;9.330;2024-01-07T13:05:01;6.63;;;5.47;;
55603;SDS011;41468;48.838;9.330;2024-01-07T13:07:30;6.00;;;5.37;;
55603;SDS011;41468;48.838;9.330;2024-01-07T13:09:57;5.53;;;5.03;;
55603;SDS011;41468;48.838;9.330;2024-01-07T13:12:25;7.47;;;5.10;;
55603;SDS011;41468;48.838;9.330;2024-01-07T13:15:08;5.93;;;5.40;;
55603;SDS011;41468;48.838;9.330;2024-01-07T13:17:36;6.13;;;4.77;;
55603;SDS011;41468;48.838;9.330;2024-01-07T13:20:03;6.03;;;5.33;;
55603;SDS011;41468;48.838;9.330;2024-01-07T13:22:33;6.43;;;5.37;;
55603;SDS011;41468;48.838;9.330;2024-01-07T13:25:01;6.50;;;5.67;;
55603;SDS011;41468;48.838;9.330;2024-01-07T13:27:27;5.87;;;5.27;;
55603;SDS011;41468;48.838;9.330;2024-01-07T13:29:54;6.07;;;5.47;;
55603;SDS011;41468;48.838;9.330;2024-01-07T13:32:21;8.20;;;6.10;;
55603;SDS011;41468;48.838;9.330;2024-01-07T13:34:48;6.83;;;5.53;;
55603;SDS011;41468;48.838;9.330;2024-01-07T13:37:15;10.97;;;8.73;;
55603;SDS011;41468;48.838;9.330;2024-01-07T13:39:41;6.57;;;5.73;;
55603;SDS011;41468;48.838;9.330;2024-01-07T13:42:09;6.77;;;5.97;;
55603;SDS011;41468;48.838;9.330;2024-01-07T13:44:35;8.47;;;6.00;;
55603;SDS011;41468;48.838;9.330;2024-01-07T13:47:02;7.10;;;6.13;;
55603;SDS011;41468;48.838;9.330;2024-01-07T13:49:29;8.23;;;6.13;;
55603;SDS011;41468;48.838;9.330;2024-01-07T13:51:56;8.87;;;7.50;;
55603;SDS011;41468;48.838;9.330;2024-01-07T13:54:23;8.90;;;7.00;;
55603;SDS011;41468;48.838;9.330;2024-01-07T13:56:50;6.90;;;6.20;;
55603;SDS011;41468;48.838;9.330;2024-01-07T13:59:21;8.30;;;6.57;;
55603;SDS011;41468;48.838;9.330;2024-01-07T14:01:49;10.47;;;6.73;;
55603;SDS011;41468;48.838;9.330;2024-01-07T14:04:16;8.30;;;6.93;;
55603;SDS011;41468;48.838;9.330;2024-01-07T14:06:55;8.73;;;6.77;;
55603;SDS011;41468;48.838;9.330;2024-01-07T14:09:33;9.57;;;6.63;;
55603;SDS011;41468;48.838;9.330;2024-01-07T14:12:00;9.07;;;7.23;;
55603;SDS011;41468;48.838;9.330;2024-01-07T14:14:28;9.70;;;6.77;;
55603;SDS011;41468;48.838;9.330;2024-01-07T14:16:55;8.20;;;6.53;;
55603;SDS011;41468;48.838;9.330;2024-01-07T14:19:23;8.70;;;7.07;;
55603;SDS011;41468;48.838;9.330;2024-01-07T14:21:49;10.27;;;7.07;;
55603;SDS011;41468;48.838;9.330;2024-01-07T14:24:18;9.47;;;7.07;;
55603;SDS011;41468;48.838;9.330;2024-01-07T14:26:45;9.60;;;7.47;;
55603;SDS011;41468;48.838;9.330;2024-01-07T14:29:12;11.33;;;8.40;;
55603;SDS011;41468;48.838;9.330;2024-01-07T14:31:43;8.13;;;7.13;;
55603;SDS011;41468;48.838;9.330;2024-01-07T14:34:12;8.63;;;7.53;;
55603;SDS011;41468;48.838;9.330;2024-01-07T14:36:40;8.83;;;7.00;;
55603;SDS011;41468;48.838;9.330;2024-01-07T14:39:10;9.33;;;7.47;;
55603;SDS011;41468;48.838;9.330;2024-01-07T14:41:37;10.63;;;7.83;;
55603;SDS011;41468;48.838;9.330;2024-01-07T14:44:04;7.83;;;6.90;;
55603;SDS011;41468;48.838;9.330;2024-01-07T14:46:36;12.17;;;9.33;;
55603;SDS011;41468;48.838;9.330;2024-01-07T14:49:03;8.97;;;6.77;;
55603;SDS011;41468;48.838;9.330;2024-01-07T14:51:31;7.63;;;6.73;;
55603;SDS011;41468;48.838;9.330;2024-01-07T14:53:58;8.73;;;6.67;;